Аэропорт: Чебоксары. Чебоксары

ICAO: UWKS

METAR:
2018/11/19 10:00
UWKS 191000Z 35003MPS 5000 -SNRA OVC005 00/M00 Q1024 R06/590139 TEMPO 2000 SNRA OVC004 RMK QFE753
METAR:
2015/12/20 18:00
TAF UWKS 201632Z 2018/2103 27003MPS 2700 -SNRA BR OVC007 
      TEMPO 2018/2102 0500 FZDZ FZFG OVC002